sensor_id;sensor_type;location;lat;lon;timestamp;temperature;humidity
1351;DHT22;669;50.206;9.998;2022-09-03T00:02:30;12.70;40.90
1351;DHT22;669;50.206;9.998;2022-09-03T00:05:03;12.80;40.70
1351;DHT22;669;50.206;9.998;2022-09-03T00:07:38;12.70;39.70
1351;DHT22;669;50.206;9.998;2022-09-03T00:10:11;12.50;40.60
1351;DHT22;669;50.206;9.998;2022-09-03T00:12:43;12.40;41.20
1351;DHT22;669;50.206;9.998;2022-09-03T00:15:14;12.30;41.00
1351;DHT22;669;50.206;9.998;2022-09-03T00:17:47;12.20;41.70
1351;DHT22;669;50.206;9.998;2022-09-03T00:20:19;12.20;42.10
1351;DHT22;669;50.206;9.998;2022-09-03T00:22:51;12.30;41.60
1351;DHT22;669;50.206;9.998;2022-09-03T00:25:24;12.20;41.60
1351;DHT22;669;50.206;9.998;2022-09-03T00:27:56;12.20;42.60
1351;DHT22;669;50.206;9.998;2022-09-03T00:30:25;12.40;43.00
1351;DHT22;669;50.206;9.998;2022-09-03T00:32:56;12.40;42.90
1351;DHT22;669;50.206;9.998;2022-09-03T00:35:27;12.40;42.00
1351;DHT22;669;50.206;9.998;2022-09-03T00:37:59;12.40;42.40
1351;DHT22;669;50.206;9.998;2022-09-03T00:40:42;12.40;42.80
1351;DHT22;669;50.206;9.998;2022-09-03T00:43:19;12.40;42.40
1351;DHT22;669;50.206;9.998;2022-09-03T00:45:55;12.40;41.90
1351;DHT22;669;50.206;9.998;2022-09-03T00:48:35;12.40;42.10
1351;DHT22;669;50.206;9.998;2022-09-03T00:51:15;12.40;42.00
1351;DHT22;669;50.206;9.998;2022-09-03T00:53:51;12.40;42.10
1351;DHT22;669;50.206;9.998;2022-09-03T00:56:29;12.30;42.20
1351;DHT22;669;50.206;9.998;2022-09-03T00:59:09;12.20;42.20
1351;DHT22;669;50.206;9.998;2022-09-03T01:01:47;12.00;42.80
1351;DHT22;669;50.206;9.998;2022-09-03T01:04:28;12.10;42.90
1351;DHT22;669;50.206;9.998;2022-09-03T01:07:05;12.00;42.80
1351;DHT22;669;50.206;9.998;2022-09-03T01:09:45;12.00;42.80
1351;DHT22;669;50.206;9.998;2022-09-03T01:12:25;12.00;42.80
1351;DHT22;669;50.206;9.998;2022-09-03T01:15:05;12.00;42.80
1351;DHT22;669;50.206;9.998;2022-09-03T01:17:46;12.00;43.50
1351;DHT22;669;50.206;9.998;2022-09-03T01:20:34;12.10;43.40
1351;DHT22;669;50.206;9.998;2022-09-03T01:23:30;12.10;43.10
1351;DHT22;669;50.206;9.998;2022-09-03T01:26:09;12.20;43.20
1351;DHT22;669;50.206;9.998;2022-09-03T01:28:51;12.20;43.00
1351;DHT22;669;50.206;9.998;2022-09-03T01:31:28;12.30;42.90
1351;DHT22;669;50.206;9.998;2022-09-03T01:34:07;12.40;43.20
1351;DHT22;669;50.206;9.998;2022-09-03T01:36:43;12.50;42.40
1351;DHT22;669;50.206;9.998;2022-09-03T01:39:18;12.50;43.10
1351;DHT22;669;50.206;9.998;2022-09-03T01:41:54;12.50;43.30
1351;DHT22;669;50.206;9.998;2022-09-03T01:48:06;12.50;42.60
1351;DHT22;669;50.206;9.998;2022-09-03T01:50:43;12.40;42.50
1351;DHT22;669;50.206;9.998;2022-09-03T01:53:25;12.50;43.30
1351;DHT22;669;50.206;9.998;2022-09-03T01:56:07;12.50;42.90
1351;DHT22;669;50.206;9.998;2022-09-03T01:58:41;12.50;43.30
1351;DHT22;669;50.206;9.998;2022-09-03T02:01:18;12.50;42.70
1351;DHT22;669;50.206;9.998;2022-09-03T02:03:48;12.50;42.90
1351;DHT22;669;50.206;9.998;2022-09-03T02:06:17;12.50;43.20
1351;DHT22;669;50.206;9.998;2022-09-03T02:08:46;12.50;43.00
1351;DHT22;669;50.206;9.998;2022-09-03T02:11:14;12.50;43.30
1351;DHT22;669;50.206;9.998;2022-09-03T02:13:45;12.60;43.40
1351;DHT22;669;50.206;9.998;2022-09-03T02:16:19;12.70;42.60
1351;DHT22;669;50.206;9.998;2022-09-03T02:18:50;12.60;43.00
1351;DHT22;669;50.206;9.998;2022-09-03T02:21:22;12.70;43.40
1351;DHT22;669;50.206;9.998;2022-09-03T02:23:51;12.60;43.30
1351;DHT22;669;50.206;9.998;2022-09-03T02:26:21;12.70;43.00
1351;DHT22;669;50.206;9.998;2022-09-03T02:28:51;12.70;42.80
1351;DHT22;669;50.206;9.998;2022-09-03T02:31:21;12.70;43.20
1351;DHT22;669;50.206;9.998;2022-09-03T02:33:50;12.70;42.60
1351;DHT22;669;50.206;9.998;2022-09-03T02:36:20;12.80;42.70
1351;DHT22;669;50.206;9.998;2022-09-03T02:38:53;12.70;42.50
1351;DHT22;669;50.206;9.998;2022-09-03T02:41:21;12.70;42.90
1351;DHT22;669;50.206;9.998;2022-09-03T02:44:07;12.70;42.50
1351;DHT22;669;50.206;9.998;2022-09-03T02:46:38;12.70;42.70
1351;DHT22;669;50.206;9.998;2022-09-03T02:49:07;12.60;42.50
1351;DHT22;669;50.206;9.998;2022-09-03T02:51:37;12.50;42.70
1351;DHT22;669;50.206;9.998;2022-09-03T02:54:07;12.50;43.10
1351;DHT22;669;50.206;9.998;2022-09-03T02:56:36;12.40;43.10
1351;DHT22;669;50.206;9.998;2022-09-03T02:59:05;12.40;42.60
1351;DHT22;669;50.206;9.998;2022-09-03T03:01:34;12.30;43.00
1351;DHT22;669;50.206;9.998;2022-09-03T03:04:05;12.30;43.10
1351;DHT22;669;50.206;9.998;2022-09-03T03:06:32;12.30;43.10
1351;DHT22;669;50.206;9.998;2022-09-03T03:09:00;12.30;43.00
1351;DHT22;669;50.206;9.998;2022-09-03T03:11:31;12.30;43.10
1351;DHT22;669;50.206;9.998;2022-09-03T03:13:59;12.20;43.00
1351;DHT22;669;50.206;9.998;2022-09-03T03:16:28;12.20;43.00
1351;DHT22;669;50.206;9.998;2022-09-03T03:18:56;12.20;43.00
1351;DHT22;669;50.206;9.998;2022-09-03T03:21:26;12.20;43.40
1351;DHT22;669;50.206;9.998;2022-09-03T03:23:54;12.20;43.20
1351;DHT22;669;50.206;9.998;2022-09-03T03:26:22;12.20;43.00
1351;DHT22;669;50.206;9.998;2022-09-03T03:28:55;12.10;43.10
1351;DHT22;669;50.206;9.998;2022-09-03T03:31:24;12.10;44.00
1351;DHT22;669;50.206;9.998;2022-09-03T03:33:53;12.20;44.10
1351;DHT22;669;50.206;9.998;2022-09-03T03:36:23;12.30;43.40
1351;DHT22;669;50.206;9.998;2022-09-03T03:38:55;12.40;44.20
1351;DHT22;669;50.206;9.998;2022-09-03T03:41:25;12.30;43.20
1351;DHT22;669;50.206;9.998;2022-09-03T03:43:54;12.20;43.30
1351;DHT22;669;50.206;9.998;2022-09-03T03:46:23;12.20;43.00
1351;DHT22;669;50.206;9.998;2022-09-03T03:48:51;12.20;43.00
1351;DHT22;669;50.206;9.998;2022-09-03T03:51:19;12.10;43.80
1351;DHT22;669;50.206;9.998;2022-09-03T03:53:47;12.10;42.90
1351;DHT22;669;50.206;9.998;2022-09-03T03:56:17;11.90;43.10
1351;DHT22;669;50.206;9.998;2022-09-03T03:58:45;11.90;43.90
1351;DHT22;669;50.206;9.998;2022-09-03T04:01:15;11.90;44.40
1351;DHT22;669;50.206;9.998;2022-09-03T04:03:44;12.00;44.20
1351;DHT22;669;50.206;9.998;2022-09-03T04:06:13;12.00;43.40
1351;DHT22;669;50.206;9.998;2022-09-03T04:08:42;12.00;43.40
1351;DHT22;669;50.206;9.998;2022-09-03T04:11:13;11.90;44.10
1351;DHT22;669;50.206;9.998;2022-09-03T04:13:43;11.80;43.30
1351;DHT22;669;50.206;9.998;2022-09-03T04:16:13;11.80;43.30
1351;DHT22;669;50.206;9.998;2022-09-03T04:18:41;11.70;44.00
1351;DHT22;669;50.206;9.998;2022-09-03T04:21:11;11.70;44.10
1351;DHT22;669;50.206;9.998;2022-09-03T04:23:41;11.60;43.90
1351;DHT22;669;50.206;9.998;2022-09-03T04:26:10;11.50;43.90
1351;DHT22;669;50.206;9.998;2022-09-03T04:28:39;11.50;44.60
1351;DHT22;669;50.206;9.998;2022-09-03T04:31:09;11.50;45.30
1351;DHT22;669;50.206;9.998;2022-09-03T04:33:38;11.60;44.40
1351;DHT22;669;50.206;9.998;2022-09-03T04:36:08;11.60;44.70
1351;DHT22;669;50.206;9.998;2022-09-03T04:38:37;11.60;44.30
1351;DHT22;669;50.206;9.998;2022-09-03T04:41:09;11.60;44.10
1351;DHT22;669;50.206;9.998;2022-09-03T04:43:37;11.50;44.00
1351;DHT22;669;50.206;9.998;2022-09-03T04:46:11;11.30;44.60
1351;DHT22;669;50.206;9.998;2022-09-03T04:48:47;11.30;44.90
1351;DHT22;669;50.206;9.998;2022-09-03T04:51:17;11.20;44.80
1351;DHT22;669;50.206;9.998;2022-09-03T04:53:46;11.30;45.20
1351;DHT22;669;50.206;9.998;2022-09-03T04:56:17;11.30;45.20
1351;DHT22;669;50.206;9.998;2022-09-03T04:58:45;11.40;45.80
1351;DHT22;669;50.206;9.998;2022-09-03T05:01:19;11.30;45.20
1351;DHT22;669;50.206;9.998;2022-09-03T05:03:48;11.30;46.00
1351;DHT22;669;50.206;9.998;2022-09-03T05:06:18;11.30;44.90
1351;DHT22;669;50.206;9.998;2022-09-03T05:08:47;11.40;45.20
1351;DHT22;669;50.206;9.998;2022-09-03T05:11:16;11.40;45.30
1351;DHT22;669;50.206;9.998;2022-09-03T05:13:46;11.40;45.50
1351;DHT22;669;50.206;9.998;2022-09-03T05:16:15;11.50;45.40
1351;DHT22;669;50.206;9.998;2022-09-03T05:18:46;11.50;46.40
1351;DHT22;669;50.206;9.998;2022-09-03T05:21:16;11.80;46.80
1351;DHT22;669;50.206;9.998;2022-09-03T05:23:46;12.20;46.00
1351;DHT22;669;50.206;9.998;2022-09-03T05:26:16;12.40;45.40
1351;DHT22;669;50.206;9.998;2022-09-03T05:28:45;12.60;44.80
1351;DHT22;669;50.206;9.998;2022-09-03T05:31:15;13.00;44.70
1351;DHT22;669;50.206;9.998;2022-09-03T05:33:45;13.50;45.70
1351;DHT22;669;50.206;9.998;2022-09-03T05:36:16;14.10;42.90
1351;DHT22;669;50.206;9.998;2022-09-03T05:38:45;14.60;41.30
1351;DHT22;669;50.206;9.998;2022-09-03T05:41:15;15.20;40.40
1351;DHT22;669;50.206;9.998;2022-09-03T05:43:46;15.80;39.40
1351;DHT22;669;50.206;9.998;2022-09-03T05:46:19;16.30;37.70
1351;DHT22;669;50.206;9.998;2022-09-03T05:48:48;16.80;37.40
1351;DHT22;669;50.206;9.998;2022-09-03T05:51:17;17.20;36.30
1351;DHT22;669;50.206;9.998;2022-09-03T05:53:47;17.50;35.50
1351;DHT22;669;50.206;9.998;2022-09-03T05:56:17;17.70;34.90
1351;DHT22;669;50.206;9.998;2022-09-03T05:58:46;17.60;33.50
1351;DHT22;669;50.206;9.998;2022-09-03T06:01:16;17.30;34.50
1351;DHT22;669;50.206;9.998;2022-09-03T06:03:52;16.90;34.40
1351;DHT22;669;50.206;9.998;2022-09-03T06:06:20;16.60;35.10
1351;DHT22;669;50.206;9.998;2022-09-03T06:08:51;16.40;35.50
1351;DHT22;669;50.206;9.998;2022-09-03T06:11:19;16.20;36.10
1351;DHT22;669;50.206;9.998;2022-09-03T06:13:49;16.00;36.70
1351;DHT22;669;50.206;9.998;2022-09-03T06:16:17;15.90;36.60
1351;DHT22;669;50.206;9.998;2022-09-03T06:18:57;15.80;36.50
1351;DHT22;669;50.206;9.998;2022-09-03T06:21:26;15.70;36.50
1351;DHT22;669;50.206;9.998;2022-09-03T06:23:56;15.70;36.50
1351;DHT22;669;50.206;9.998;2022-09-03T06:26:26;15.60;37.00
1351;DHT22;669;50.206;9.998;2022-09-03T06:28:56;15.70;36.90
1351;DHT22;669;50.206;9.998;2022-09-03T06:31:24;15.50;37.00
1351;DHT22;669;50.206;9.998;2022-09-03T06:33:52;15.60;37.40
1351;DHT22;669;50.206;9.998;2022-09-03T06:36:27;15.60;37.00
1351;DHT22;669;50.206;9.998;2022-09-03T06:38:56;15.70;37.10
1351;DHT22;669;50.206;9.998;2022-09-03T06:41:26;15.70;37.50
1351;DHT22;669;50.206;9.998;2022-09-03T06:43:57;15.70;37.00
1351;DHT22;669;50.206;9.998;2022-09-03T06:46:30;15.70;37.20
1351;DHT22;669;50.206;9.998;2022-09-03T06:49:16;15.80;36.80
1351;DHT22;669;50.206;9.998;2022-09-03T06:51:49;15.70;37.00
1351;DHT22;669;50.206;9.998;2022-09-03T06:54:16;15.70;37.00
1351;DHT22;669;50.206;9.998;2022-09-03T06:56:44;15.70;37.60
1351;DHT22;669;50.206;9.998;2022-09-03T06:59:13;15.80;37.30
1351;DHT22;669;50.206;9.998;2022-09-03T07:01:42;15.90;37.60
1351;DHT22;669;50.206;9.998;2022-09-03T07:04:13;16.00;37.30
1351;DHT22;669;50.206;9.998;2022-09-03T07:06:42;16.10;36.80
1351;DHT22;669;50.206;9.998;2022-09-03T07:09:12;16.20;36.90
1351;DHT22;669;50.206;9.998;2022-09-03T07:11:41;16.20;36.80
1351;DHT22;669;50.206;9.998;2022-09-03T07:14:15;16.10;36.80
1351;DHT22;669;50.206;9.998;2022-09-03T07:16:43;16.20;36.90
1351;DHT22;669;50.206;9.998;2022-09-03T07:19:12;16.20;36.90
1351;DHT22;669;50.206;9.998;2022-09-03T07:21:41;16.20;36.90
1351;DHT22;669;50.206;9.998;2022-09-03T07:24:17;16.30;37.00
1351;DHT22;669;50.206;9.998;2022-09-03T07:26:45;16.40;37.10
1351;DHT22;669;50.206;9.998;2022-09-03T07:29:14;16.50;36.90
1351;DHT22;669;50.206;9.998;2022-09-03T07:31:46;16.60;36.60
1351;DHT22;669;50.206;9.998;2022-09-03T07:34:18;16.60;35.90
1351;DHT22;669;50.206;9.998;2022-09-03T07:36:48;16.60;36.40
1351;DHT22;669;50.206;9.998;2022-09-03T07:39:18;16.60;36.20
1351;DHT22;669;50.206;9.998;2022-09-03T07:41:46;16.70;36.20
1351;DHT22;669;50.206;9.998;2022-09-03T07:44:17;16.90;35.80
1351;DHT22;669;50.206;9.998;2022-09-03T07:46:46;16.90;35.80
1351;DHT22;669;50.206;9.998;2022-09-03T07:49:16;17.10;35.90
1351;DHT22;669;50.206;9.998;2022-09-03T07:51:45;17.10;34.90
1351;DHT22;669;50.206;9.998;2022-09-03T07:54:17;17.10;35.70
1351;DHT22;669;50.206;9.998;2022-09-03T07:56:47;17.30;34.80
1351;DHT22;669;50.206;9.998;2022-09-03T07:59:15;17.50;35.60
1351;DHT22;669;50.206;9.998;2022-09-03T08:01:43;17.50;34.20
1351;DHT22;669;50.206;9.998;2022-09-03T08:04:11;17.60;35.00
1351;DHT22;669;50.206;9.998;2022-09-03T08:06:39;17.70;34.90
1351;DHT22;669;50.206;9.998;2022-09-03T08:09:10;17.70;34.60
1351;DHT22;669;50.206;9.998;2022-09-03T08:11:42;17.70;34.00
1351;DHT22;669;50.206;9.998;2022-09-03T08:14:11;17.80;34.40
1351;DHT22;669;50.206;9.998;2022-09-03T08:16:41;17.90;33.50
1351;DHT22;669;50.206;9.998;2022-09-03T08:19:09;17.90;34.10
1351;DHT22;669;50.206;9.998;2022-09-03T08:21:39;18.20;33.80
1351;DHT22;669;50.206;9.998;2022-09-03T08:24:09;18.50;33.70
1351;DHT22;669;50.206;9.998;2022-09-03T08:26:38;18.60;32.90
1351;DHT22;669;50.206;9.998;2022-09-03T08:29:09;18.60;33.10
1351;DHT22;669;50.206;9.998;2022-09-03T08:31:36;18.60;32.80
1351;DHT22;669;50.206;9.998;2022-09-03T08:34:06;18.60;33.10
1351;DHT22;669;50.206;9.998;2022-09-03T08:36:35;18.40;33.30
1351;DHT22;669;50.206;9.998;2022-09-03T08:39:05;18.20;33.80
1351;DHT22;669;50.206;9.998;2022-09-03T08:41:47;18.20;33.50
1351;DHT22;669;50.206;9.998;2022-09-03T08:44:23;18.00;33.80
1351;DHT22;669;50.206;9.998;2022-09-03T08:46:56;18.00;33.70
1351;DHT22;669;50.206;9.998;2022-09-03T08:49:27;18.00;34.10
1351;DHT22;669;50.206;9.998;2022-09-03T08:52:01;18.00;34.60
1351;DHT22;669;50.206;9.998;2022-09-03T08:54:31;18.00;34.50
1351;DHT22;669;50.206;9.998;2022-09-03T08:57:01;18.00;34.30
1351;DHT22;669;50.206;9.998;2022-09-03T08:59:31;18.10;34.00
1351;DHT22;669;50.206;9.998;2022-09-03T09:02:08;18.10;34.60
1351;DHT22;669;50.206;9.998;2022-09-03T09:04:49;18.20;33.60
1351;DHT22;669;50.206;9.998;2022-09-03T09:07:22;18.20;33.90
1351;DHT22;669;50.206;9.998;2022-09-03T09:09:56;18.20;34.20
1351;DHT22;669;50.206;9.998;2022-09-03T09:12:34;18.30;34.40
1351;DHT22;669;50.206;9.998;2022-09-03T09:15:22;18.30;33.90
1351;DHT22;669;50.206;9.998;2022-09-03T09:18:02;18.30;33.80
1351;DHT22;669;50.206;9.998;2022-09-03T09:20:35;18.40;34.10
1351;DHT22;669;50.206;9.998;2022-09-03T09:23:11;18.50;34.00
1351;DHT22;669;50.206;9.998;2022-09-03T09:25:46;18.60;33.20
1351;DHT22;669;50.206;9.998;2022-09-03T09:28:18;18.70;33.50
1351;DHT22;669;50.206;9.998;2022-09-03T09:30:49;18.80;33.30
1351;DHT22;669;50.206;9.998;2022-09-03T09:33:18;19.00;33.70
1351;DHT22;669;50.206;9.998;2022-09-03T09:35:47;19.00;33.30
1351;DHT22;669;50.206;9.998;2022-09-03T09:38:26;19.20;33.20
1351;DHT22;669;50.206;9.998;2022-09-03T09:40:55;19.30;32.70
1351;DHT22;669;50.206;9.998;2022-09-03T09:43:25;19.40;33.10
1351;DHT22;669;50.206;9.998;2022-09-03T09:46:06;19.50;33.30
1351;DHT22;669;50.206;9.998;2022-09-03T09:48:38;19.60;32.90
1351;DHT22;669;50.206;9.998;2022-09-03T09:51:09;19.70;33.60
1351;DHT22;669;50.206;9.998;2022-09-03T09:53:38;19.90;32.10
1351;DHT22;669;50.206;9.998;2022-09-03T09:56:06;20.00;32.20
1351;DHT22;669;50.206;9.998;2022-09-03T09:58:35;20.20;32.50
1351;DHT22;669;50.206;9.998;2022-09-03T10:01:10;20.50;31.90
1351;DHT22;669;50.206;9.998;2022-09-03T10:03:47;21.20;31.40
1351;DHT22;669;50.206;9.998;2022-09-03T10:06:15;21.80;30.90
1351;DHT22;669;50.206;9.998;2022-09-03T10:09:08;22.20;29.30
1351;DHT22;669;50.206;9.998;2022-09-03T10:11:38;23.00;29.60
1351;DHT22;669;50.206;9.998;2022-09-03T10:14:11;23.00;28.20
1351;DHT22;669;50.206;9.998;2022-09-03T10:16:45;22.90;28.50
1351;DHT22;669;50.206;9.998;2022-09-03T10:19:16;23.00;28.30
1351;DHT22;669;50.206;9.998;2022-09-03T10:21:52;23.50;28.00
1351;DHT22;669;50.206;9.998;2022-09-03T10:24:37;24.30;27.90
1351;DHT22;669;50.206;9.998;2022-09-03T10:27:09;24.70;26.30
1351;DHT22;669;50.206;9.998;2022-09-03T10:29:41;24.50;26.70
1351;DHT22;669;50.206;9.998;2022-09-03T10:32:25;24.10;26.30
1351;DHT22;669;50.206;9.998;2022-09-03T10:35:16;23.70;27.10
1351;DHT22;669;50.206;9.998;2022-09-03T10:37:52;23.10;27.60
1351;DHT22;669;50.206;9.998;2022-09-03T10:40:29;22.80;27.80
1351;DHT22;669;50.206;9.998;2022-09-03T10:43:13;22.70;27.40
1351;DHT22;669;50.206;9.998;2022-09-03T10:45:51;22.50;28.10
1351;DHT22;669;50.206;9.998;2022-09-03T10:48:44;22.20;28.10
1351;DHT22;669;50.206;9.998;2022-09-03T10:51:18;21.80;28.50
1351;DHT22;669;50.206;9.998;2022-09-03T10:53:59;21.80;29.10
1351;DHT22;669;50.206;9.998;2022-09-03T10:56:31;21.50;28.70
1351;DHT22;669;50.206;9.998;2022-09-03T10:59:14;21.40;29.70
1351;DHT22;669;50.206;9.998;2022-09-03T11:01:48;21.40;29.20
1351;DHT22;669;50.206;9.998;2022-09-03T11:04:27;21.30;29.40
1351;DHT22;669;50.206;9.998;2022-09-03T11:07:06;21.20;29.80
1351;DHT22;669;50.206;9.998;2022-09-03T11:09:37;21.20;29.80
1351;DHT22;669;50.206;9.998;2022-09-03T11:12:11;21.20;29.80
1351;DHT22;669;50.206;9.998;2022-09-03T11:14:44;21.30;30.10
1351;DHT22;669;50.206;9.998;2022-09-03T11:17:19;21.40;29.60
1351;DHT22;669;50.206;9.998;2022-09-03T11:19:55;21.50;32.90
1351;DHT22;669;50.206;9.998;2022-09-03T11:22:26;21.50;31.70
1351;DHT22;669;50.206;9.998;2022-09-03T11:24:58;21.60;33.40
1351;DHT22;669;50.206;9.998;2022-09-03T11:27:35;21.60;32.50
1351;DHT22;669;50.206;9.998;2022-09-03T11:30:14;21.60;31.70
1351;DHT22;669;50.206;9.998;2022-09-03T11:32:51;21.70;30.60
1351;DHT22;669;50.206;9.998;2022-09-03T11:35:27;21.80;31.00
1351;DHT22;669;50.206;9.998;2022-09-03T11:37:58;21.90;30.90
1351;DHT22;669;50.206;9.998;2022-09-03T11:40:32;21.90;30.10
1351;DHT22;669;50.206;9.998;2022-09-03T11:43:05;21.90;30.50
1351;DHT22;669;50.206;9.998;2022-09-03T11:45:36;21.80;30.00
1351;DHT22;669;50.206;9.998;2022-09-03T11:48:35;21.60;29.20
1351;DHT22;669;50.206;9.998;2022-09-03T11:51:17;21.50;29.10
1351;DHT22;669;50.206;9.998;2022-09-03T11:53:53;21.50;30.60
1351;DHT22;669;50.206;9.998;2022-09-03T11:56:22;21.50;30.50
1351;DHT22;669;50.206;9.998;2022-09-03T11:59:14;21.50;30.60
1351;DHT22;669;50.206;9.998;2022-09-03T12:01:48;21.40;32.00
1351;DHT22;669;50.206;9.998;2022-09-03T12:04:20;21.40;33.30
1351;DHT22;669;50.206;9.998;2022-09-03T12:07:05;21.30;31.50
1351;DHT22;669;50.206;9.998;2022-09-03T12:09:55;21.30;31.80
1351;DHT22;669;50.206;9.998;2022-09-03T12:12:42;21.30;31.50
1351;DHT22;669;50.206;9.998;2022-09-03T12:15:20;21.20;32.00
1351;DHT22;669;50.206;9.998;2022-09-03T12:17:57;21.10;33.20
1351;DHT22;669;50.206;9.998;2022-09-03T12:20:44;21.00;32.30
1351;DHT22;669;50.206;9.998;2022-09-03T12:23:25;21.00;34.80
1351;DHT22;669;50.206;9.998;2022-09-03T12:25:53;21.00;35.10
1351;DHT22;669;50.206;9.998;2022-09-03T12:28:23;21.00;35.80
1351;DHT22;669;50.206;9.998;2022-09-03T12:30:52;21.00;36.80
1351;DHT22;669;50.206;9.998;2022-09-03T12:33:21;21.00;40.40
1351;DHT22;669;50.206;9.998;2022-09-03T12:35:56;20.90;41.00
1351;DHT22;669;50.206;9.998;2022-09-03T12:38:27;20.70;42.90
1351;DHT22;669;50.206;9.998;2022-09-03T12:41:24;20.50;43.60
1351;DHT22;669;50.206;9.998;2022-09-03T12:43:56;20.40;44.50
1351;DHT22;669;50.206;9.998;2022-09-03T12:46:26;20.30;46.30
1351;DHT22;669;50.206;9.998;2022-09-03T12:49:01;20.20;49.30
1351;DHT22;669;50.206;9.998;2022-09-03T12:51:51;20.10;49.10
1351;DHT22;669;50.206;9.998;2022-09-03T12:54:33;20.00;49.40
1351;DHT22;669;50.206;9.998;2022-09-03T12:57:02;19.90;51.20
1351;DHT22;669;50.206;9.998;2022-09-03T12:59:35;19.90;51.40
1351;DHT22;669;50.206;9.998;2022-09-03T13:02:13;19.90;51.50
1351;DHT22;669;50.206;9.998;2022-09-03T13:04:44;19.90;50.20
1351;DHT22;669;50.206;9.998;2022-09-03T13:07:20;19.90;49.70
1351;DHT22;669;50.206;9.998;2022-09-03T13:09:59;19.90;49.70
1351;DHT22;669;50.206;9.998;2022-09-03T13:12:32;19.90;48.40
1351;DHT22;669;50.206;9.998;2022-09-03T13:15:08;19.90;48.30
1351;DHT22;669;50.206;9.998;2022-09-03T13:17:50;20.00;49.00
1351;DHT22;669;50.206;9.998;2022-09-03T13:20:29;20.10;46.90
1351;DHT22;669;50.206;9.998;2022-09-03T13:23:09;20.20;46.90
1351;DHT22;669;50.206;9.998;2022-09-03T13:25:49;20.30;47.30
1351;DHT22;669;50.206;9.998;2022-09-03T13:28:28;20.40;45.80
1351;DHT22;669;50.206;9.998;2022-09-03T13:31:05;20.60;45.60
1351;DHT22;669;50.206;9.998;2022-09-03T13:33:39;20.70;44.60
1351;DHT22;669;50.206;9.998;2022-09-03T13:36:12;20.80;44.50
1351;DHT22;669;50.206;9.998;2022-09-03T13:38:45;21.00;44.00
1351;DHT22;669;50.206;9.998;2022-09-03T13:41:24;21.10;43.60
1351;DHT22;669;50.206;9.998;2022-09-03T13:44:06;21.20;42.50
1351;DHT22;669;50.206;9.998;2022-09-03T13:46:42;21.40;43.00
1351;DHT22;669;50.206;9.998;2022-09-03T13:49:22;21.50;41.50
1351;DHT22;669;50.206;9.998;2022-09-03T13:52:17;21.50;41.50
1351;DHT22;669;50.206;9.998;2022-09-03T13:54:51;21.50;41.50
1351;DHT22;669;50.206;9.998;2022-09-03T13:57:29;21.50;42.50
1351;DHT22;669;50.206;9.998;2022-09-03T14:00:04;21.50;41.50
1351;DHT22;669;50.206;9.998;2022-09-03T14:02:45;21.60;41.30
1351;DHT22;669;50.206;9.998;2022-09-03T14:05:24;21.70;40.40
1351;DHT22;669;50.206;9.998;2022-09-03T14:08:04;21.80;40.50
1351;DHT22;669;50.206;9.998;2022-09-03T14:10:49;21.90;40.00
1351;DHT22;669;50.206;9.998;2022-09-03T14:13:29;22.10;38.60
1351;DHT22;669;50.206;9.998;2022-09-03T14:16:04;22.20;38.50
1351;DHT22;669;50.206;9.998;2022-09-03T14:18:45;22.40;37.40
1351;DHT22;669;50.206;9.998;2022-09-03T14:21:21;22.70;35.30
1351;DHT22;669;50.206;9.998;2022-09-03T14:23:54;22.90;35.60
1351;DHT22;669;50.206;9.998;2022-09-03T14:26:28;23.00;34.10
1351;DHT22;669;50.206;9.998;2022-09-03T14:29:14;23.00;33.00
1351;DHT22;669;50.206;9.998;2022-09-03T14:32:14;23.10;33.00
1351;DHT22;669;50.206;9.998;2022-09-03T14:34:57;22.90;33.60
1351;DHT22;669;50.206;9.998;2022-09-03T14:37:40;22.80;32.80
1351;DHT22;669;50.206;9.998;2022-09-03T14:40:17;22.70;34.30
1351;DHT22;669;50.206;9.998;2022-09-03T14:43:12;22.60;34.40
1351;DHT22;669;50.206;9.998;2022-09-03T14:46:00;22.50;34.70
1351;DHT22;669;50.206;9.998;2022-09-03T14:48:45;22.50;35.80
1351;DHT22;669;50.206;9.998;2022-09-03T14:51:25;22.40;34.70
1351;DHT22;669;50.206;9.998;2022-09-03T14:54:27;22.50;35.30
1351;DHT22;669;50.206;9.998;2022-09-03T14:57:09;22.50;34.70
1351;DHT22;669;50.206;9.998;2022-09-03T14:59:52;22.60;35.00
1351;DHT22;669;50.206;9.998;2022-09-03T15:06:10;22.60;33.00
1351;DHT22;669;50.206;9.998;2022-09-03T15:08:53;22.50;32.50
1351;DHT22;669;50.206;9.998;2022-09-03T15:11:24;22.30;32.40
1351;DHT22;669;50.206;9.998;2022-09-03T15:13:59;22.30;33.90
1351;DHT22;669;50.206;9.998;2022-09-03T15:16:38;22.20;34.30
1351;DHT22;669;50.206;9.998;2022-09-03T15:19:18;22.30;34.30
1351;DHT22;669;50.206;9.998;2022-09-03T15:22:07;22.30;34.20
1351;DHT22;669;50.206;9.998;2022-09-03T15:24:49;22.40;33.70
1351;DHT22;669;50.206;9.998;2022-09-03T15:27:37;22.30;33.50
1351;DHT22;669;50.206;9.998;2022-09-03T15:30:09;22.20;33.80
1351;DHT22;669;50.206;9.998;2022-09-03T15:32:50;22.20;32.90
1351;DHT22;669;50.206;9.998;2022-09-03T15:35:42;22.20;34.10
1351;DHT22;669;50.206;9.998;2022-09-03T15:38:27;22.00;33.80
1351;DHT22;669;50.206;9.998;2022-09-03T15:41:02;21.80;34.30
1351;DHT22;669;50.206;9.998;2022-09-03T15:43:33;21.70;36.00
1351;DHT22;669;50.206;9.998;2022-09-03T15:46:03;21.60;35.80
1351;DHT22;669;50.206;9.998;2022-09-03T15:48:45;21.50;36.20
1351;DHT22;669;50.206;9.998;2022-09-03T15:51:16;21.50;36.50
1351;DHT22;669;50.206;9.998;2022-09-03T15:53:53;21.50;36.10
1351;DHT22;669;50.206;9.998;2022-09-03T15:56:27;21.60;35.90
1351;DHT22;669;50.206;9.998;2022-09-03T15:59:01;21.60;36.00
1351;DHT22;669;50.206;9.998;2022-09-03T16:01:44;21.60;36.50
1351;DHT22;669;50.206;9.998;2022-09-03T16:04:26;21.70;36.50
1351;DHT22;669;50.206;9.998;2022-09-03T16:07:02;21.60;36.70
1351;DHT22;669;50.206;9.998;2022-09-03T16:09:45;21.60;35.60
1351;DHT22;669;50.206;9.998;2022-09-03T16:12:39;21.60;36.00
1351;DHT22;669;50.206;9.998;2022-09-03T16:15:16;21.60;36.00
1351;DHT22;669;50.206;9.998;2022-09-03T16:17:51;21.50;35.10
1351;DHT22;669;50.206;9.998;2022-09-03T16:20:24;21.50;35.10
1351;DHT22;669;50.206;9.998;2022-09-03T16:22:58;21.40;35.00
1351;DHT22;669;50.206;9.998;2022-09-03T16:25:32;21.40;35.20
1351;DHT22;669;50.206;9.998;2022-09-03T16:28:05;21.40;35.20
1351;DHT22;669;50.206;9.998;2022-09-03T16:30:50;21.30;34.90
1351;DHT22;669;50.206;9.998;2022-09-03T16:33:27;21.20;35.40
1351;DHT22;669;50.206;9.998;2022-09-03T16:36:05;21.10;35.00
1351;DHT22;669;50.206;9.998;2022-09-03T16:38:45;21.10;35.40
1351;DHT22;669;50.206;9.998;2022-09-03T16:41:23;21.20;35.20
1351;DHT22;669;50.206;9.998;2022-09-03T16:44:02;21.20;35.80
1351;DHT22;669;50.206;9.998;2022-09-03T16:46:36;21.20;35.80
1351;DHT22;669;50.206;9.998;2022-09-03T16:49:29;21.20;35.00
1351;DHT22;669;50.206;9.998;2022-09-03T16:52:10;21.20;35.00
1351;DHT22;669;50.206;9.998;2022-09-03T16:54:50;21.10;35.60
1351;DHT22;669;50.206;9.998;2022-09-03T16:57:31;21.10;35.00
1351;DHT22;669;50.206;9.998;2022-09-03T17:00:06;21.00;34.80
1351;DHT22;669;50.206;9.998;2022-09-03T17:03:15;20.90;34.70
1351;DHT22;669;50.206;9.998;2022-09-03T17:06:15;20.90;35.20
1351;DHT22;669;50.206;9.998;2022-09-03T17:08:55;20.90;35.50
1351;DHT22;669;50.206;9.998;2022-09-03T17:11:40;20.80;35.10
1351;DHT22;669;50.206;9.998;2022-09-03T17:17:25;20.70;35.70